Slayden, TN (37165)

11:01 PM CDT on May 27, 2017 (GMT -0500)
Country | | Change Station

Elev 748 ft 36.22 °N, 87.49 °W | Updated 8 minutes ago

Rain
Rain
62.1 °F
Feels Like 62.1 °F
N
0.0
Wind Variable Wind from SW

Today
High -- | Low -- °F
--% Chance of Precip.
Yesterday
High -- | Low -- °F
Precip. -- in
Pressure 29.88 in
Visibility 10.0 miles
Clouds Few 3200 ft
Dew Point 62 °F
Humidity 99%
Rainfall 3.49 in
Snow Depth Not available.
5:35 AM 7:58 PM
Waxing Crescent, 8% visible
METAR KHOP 280358Z AUTO 00000KT 10SM FEW032 18/18 A2988 RMK AO2 DZE0258RAB0258E20DZB22E28RAB28E44DZB44E46DZB48E57 TSB05E20 SLP116 P0003 T01790179 $
Pressure 29.88 in
Visibility 10.0 miles
Clouds Few 3200 ft
Dew Point 62 °F
Humidity 99%
Rainfall 3.49 in
Snow Depth Not available.
5:35 AM 7:58 PM
Waxing Crescent, 8% visible
METAR KHOP 280358Z AUTO 00000KT 10SM FEW032 18/18 A2988 RMK AO2 DZE0258RAB0258E20DZB22E28RAB28E44DZB44E46DZB48E57 TSB05E20 SLP116 P0003 T01790179 $

Get Your Daily Forecast Email!

Thanks for signing up!

Be on the lookout for a verification email in your inbox.

You'll start receiving severe weather alerts in your inbox..

×

10-Day Weather Forecast

Almanac

Astronomy

May. 27, 2017 Rise Set
Actual Time
Civil Twilight
Nautical Twilight
Astronomical Twilight
Moon
Length of Visible Light
Length of Day
Tomorrow will be .
, % of the Moon is Illuminated

Today's Extremes

State Highs State Lows

Community

WunderPhotos

Category 6

Welcome to Category 6. This is the collective home for Weather Underground's featured writeups by Dr. Jeff Masters (right), Bob Henson (left), Chris Burt, and other regular contributors.

Nearby

Air Quality

  Air Quality AQ Index Pollutant
Not available.

Snow Depth

Station Depth Elevation

Earthquake Activity

City Distance Mag. Time & Date
Minimum magnitude displayed is 2.5.

Coastal Water Temperatures

Place Temperature

Stations

Nearby Weather Stations

Station Location Temp. Windchill Dew Point Humidity Wind Precip. Elev Updated Type
                   

Watches & Warnings

Severe Thunderstorm Watch
Issued: 10:43 PM CDT May. 27, 2017 – National Weather Service

Severe Thunderstorm Watch 280 remains in effect until 1200 am CDT
for the following locations


TN
. Tennessee counties included are

Bedford Benton Cannon
Carroll Cheatham Clay
Coffee Cumberland Davidson
De Kalb Dickson Dyer
Fentress Gibson Giles
Grundy Henry Hickman
Houston Humphreys Jackson
Lake Lawrence Lewis
Macon Marshall Maury
Montgomery Obion Overton
Perry Pickett Putnam
Robertson Rutherford Smith
Stewart Sumner Trousdale
Van Buren Warren Wayne
Weakley white Williamson
Wilson